Time;durP1;ratioP1;P1;durP2;ratioP2;P2;SDS_P1;SDS_P2;PMS_P1;PMS_P2;Temp;Humidity;BMP_temperature;BMP_pressure;BME280_temperature;BME280_humidity;BME280_pressure;Samples;Min_cycle;Max_cycle;Signal;HPM_P1;HPM_P2
2022/07/27 00:01:57;;;;;;;1.52;1.27;;;;;;;;;;5056605;28;20745;-83
2022/07/27 00:04:26;;;;;;;2.38;1.58;;;;;;;;;;5057471;28;20624;-81
2022/07/27 00:06:54;;;;;;;3.22;1.35;;;;;;;;;;5057245;28;20201;-83
2022/07/27 00:09:22;;;;;;;1.45;1.20;;;;;;;;;;5056590;28;20685;-82
2022/07/27 00:11:49;;;;;;;2.08;1.65;;;;;;;;;;5056470;28;20202;-83
2022/07/27 00:14:17;;;;;;;1.15;0.98;;;;;;;;;;5057075;28;20201;-83
2022/07/27 00:16:44;;;;;;;1.25;1.13;;;;;;;;;;5056703;28;20314;-83
2022/07/27 00:19:12;;;;;;;5.70;1.45;;;;;;;;;;5057012;28;20209;-83
2022/07/27 00:21:41;;;;;;;2.88;1.33;;;;;;;;;;5056848;28;20269;-82
2022/07/27 00:24:09;;;;;;;2.35;1.20;;;;;;;;;;5057111;28;20244;-83
2022/07/27 00:26:36;;;;;;;1.35;1.25;;;;;;;;;;5056392;28;20237;-84
2022/07/27 00:29:04;;;;;;;2.53;1.33;;;;;;;;;;5056603;28;20253;-83
2022/07/27 00:31:32;;;;;;;3.72;1.45;;;;;;;;;;5056692;28;20229;-83
2022/07/27 00:34:00;;;;;;;1.30;1.10;;;;;;;;;;5056500;28;20206;-81
2022/07/27 00:36:27;;;;;;;1.42;1.33;;;;;;;;;;5056443;28;20651;-82
2022/07/27 00:38:56;;;;;;;2.17;1.10;;;;;;;;;;5057185;28;20261;-83
2022/07/27 00:41:24;;;;;;;1.25;0.85;;;;;;;;;;5056759;28;20750;-82
2022/07/27 00:43:54;;;;;;;1.85;1.20;;;;;;;;;;5057870;28;20297;-82
2022/07/27 00:46:21;;;;;;;1.42;0.88;;;;;;;;;;5056349;28;20289;-82
2022/07/27 00:48:49;;;;;;;1.83;1.10;;;;;;;;;;5056754;28;20253;-82
2022/07/27 00:51:18;;;;;;;1.02;0.98;;;;;;;;;;5056113;28;20655;-82
2022/07/27 00:53:46;;;;;;;1.48;0.90;;;;;;;;;;5057719;28;20638;-81
2022/07/27 00:56:15;;;;;;;1.92;1.17;;;;;;;;;;5056586;28;20289;-81
2022/07/27 00:58:43;;;;;;;0.75;0.75;;;;;;;;;;5056422;28;20736;-82
2022/07/27 01:01:11;;;;;;;1.98;1.08;;;;;;;;;;5056204;28;20294;-83
2022/07/27 01:03:38;;;;;;;1.40;1.13;;;;;;;;;;5057034;28;20212;-83
2022/07/27 01:06:06;;;;;;;3.55;1.33;;;;;;;;;;5057166;28;20229;-85
2022/07/27 01:08:34;;;;;;;1.60;1.05;;;;;;;;;;5055673;28;20222;-83
2022/07/27 01:11:03;;;;;;;1.20;0.90;;;;;;;;;;5056025;28;20269;-83
2022/07/27 01:13:32;;;;;;;1.90;1.20;;;;;;;;;;5056338;28;20292;-82
2022/07/27 01:15:59;;;;;;;1.65;1.02;;;;;;;;;;5056446;28;20198;-82
2022/07/27 01:18:31;;;;;;;1.38;1.27;;;;;;;;;;5054691;28;20657;-82
2022/07/27 01:21:00;;;;;;;1.38;1.20;;;;;;;;;;5055876;28;20241;-82
2022/07/27 01:23:31;;;;;;;1.33;1.20;;;;;;;;;;5055629;28;20229;-83
2022/07/27 01:25:59;;;;;;;2.65;1.27;;;;;;;;;;5056004;28;20233;-82
2022/07/27 01:28:27;;;;;;;1.20;1.10;;;;;;;;;;5056068;28;20228;-83
2022/07/27 01:30:56;;;;;;;2.45;0.90;;;;;;;;;;5055859;28;20225;-81
2022/07/27 01:33:25;;;;;;;2.13;1.70;;;;;;;;;;5055204;28;20212;-82
2022/07/27 01:35:54;;;;;;;1.83;1.30;;;;;;;;;;5056151;28;20658;-82
2022/07/27 01:38:22;;;;;;;1.40;0.98;;;;;;;;;;5055215;28;20236;-83
2022/07/27 01:40:53;;;;;;;1.20;1.10;;;;;;;;;;5056270;28;20565;-83
2022/07/27 01:43:21;;;;;;;2.42;1.00;;;;;;;;;;5055844;28;20293;-83
2022/07/27 01:45:49;;;;;;;1.77;1.65;;;;;;;;;;5056106;28;20773;-83
2022/07/27 01:48:17;;;;;;;1.33;1.23;;;;;;;;;;5055475;28;20304;-83
2022/07/27 01:50:44;;;;;;;1.77;1.10;;;;;;;;;;5056008;28;20226;-82
2022/07/27 01:53:12;;;;;;;2.22;0.90;;;;;;;;;;5055982;28;20570;-82
2022/07/27 01:55:39;;;;;;;1.77;1.00;;;;;;;;;;5056171;28;20204;-83
2022/07/27 01:58:09;;;;;;;1.17;0.80;;;;;;;;;;5056119;28;20225;-83
2022/07/27 02:00:37;;;;;;;2.30;1.20;;;;;;;;;;5059467;28;20288;-83
2022/07/27 02:03:06;;;;;;;1.67;1.58;;;;;;;;;;5060096;28;20218;-83
2022/07/27 02:05:35;;;;;;;1.42;0.93;;;;;;;;;;5060238;28;20633;-81
2022/07/27 02:08:02;;;;;;;1.40;1.10;;;;;;;;;;5058892;28;20312;-83
2022/07/27 02:10:30;;;;;;;1.60;1.00;;;;;;;;;;5061067;28;20242;-81
2022/07/27 02:12:57;;;;;;;1.67;1.00;;;;;;;;;;5060892;28;20251;-81
2022/07/27 02:15:28;;;;;;;1.15;0.98;;;;;;;;;;5060222;28;20327;-83
2022/07/27 02:17:56;;;;;;;2.33;1.45;;;;;;;;;;5058457;28;20222;-83
2022/07/27 02:20:26;;;;;;;2.05;1.23;;;;;;;;;;5060106;28;20201;-82
2022/07/27 02:22:53;;;;;;;3.67;1.80;;;;;;;;;;5060033;28;20347;-82
2022/07/27 02:25:21;;;;;;;1.85;1.02;;;;;;;;;;5059884;28;20289;-83
2022/07/27 02:27:49;;;;;;;2.88;1.50;;;;;;;;;;5067277;22;20741;-77
2022/07/27 02:30:16;;;;;;;1.42;0.93;;;;;;;;;;5037382;28;20653;-77
2022/07/27 02:32:45;;;;;;;3.40;1.05;;;;;;;;;;5037020;28;20464;-78
2022/07/27 02:35:13;;;;;;;1.70;1.00;;;;;;;;;;5037231;28;20289;-78
2022/07/27 02:37:40;;;;;;;3.10;1.20;;;;;;;;;;5036519;28;20241;-79
2022/07/27 02:40:10;;;;;;;1.95;0.80;;;;;;;;;;5037148;28;20309;-77
2022/07/27 02:42:37;;;;;;;1.48;0.98;;;;;;;;;;5036421;28;20603;-78
2022/07/27 02:45:06;;;;;;;1.58;0.90;;;;;;;;;;5036680;28;20229;-78
2022/07/27 02:47:34;;;;;;;1.48;1.00;;;;;;;;;;5036317;28;20198;-78
2022/07/27 02:50:03;;;;;;;3.15;1.00;;;;;;;;;;5040897;28;20221;-78
2022/07/27 02:52:31;;;;;;;1.02;0.90;;;;;;;;;;5056357;28;20737;-78
2022/07/27 02:54:58;;;;;;;1.58;1.17;;;;;;;;;;5056794;28;20363;-78
2022/07/27 02:57:26;;;;;;;2.40;1.10;;;;;;;;;;5056678;28;20202;-77
2022/07/27 02:59:54;;;;;;;4.57;1.40;;;;;;;;;;5056308;28;20656;-78
2022/07/27 03:02:21;;;;;;;2.00;1.00;;;;;;;;;;5057130;28;20217;-78
2022/07/27 03:04:49;;;;;;;3.58;1.20;;;;;;;;;;5056766;28;20244;-76
2022/07/27 03:07:18;;;;;;;2.78;1.00;;;;;;;;;;5056654;28;20208;-78
2022/07/27 03:09:46;;;;;;;0.77;0.77;;;;;;;;;;5056959;28;20240;-78
2022/07/27 03:12:13;;;;;;;0.88;0.85;;;;;;;;;;5055285;28;20212;-78
2022/07/27 03:14:41;;;;;;;1.27;0.93;;;;;;;;;;5056004;28;20233;-78
2022/07/27 03:17:08;;;;;;;1.80;1.00;;;;;;;;;;5055769;28;20309;-78
2022/07/27 03:19:36;;;;;;;0.82;0.80;;;;;;;;;;5056052;28;20304;-78
2022/07/27 03:22:03;;;;;;;3.40;1.20;;;;;;;;;;5055346;28;20284;-78
2022/07/27 03:24:32;;;;;;;0.98;0.98;;;;;;;;;;5055848;28;20202;-78
2022/07/27 03:26:59;;;;;;;2.15;1.00;;;;;;;;;;5056022;28;20198;-78
2022/07/27 03:29:27;;;;;;;1.20;1.10;;;;;;;;;;5056563;28;20316;-77
2022/07/27 03:31:54;;;;;;;1.15;0.77;;;;;;;;;;5056274;28;20289;-78
2022/07/27 03:34:22;;;;;;;1.30;1.05;;;;;;;;;;5055993;28;20244;-78
2022/07/27 03:36:49;;;;;;;2.53;1.27;;;;;;;;;;5055796;28;20197;-77
2022/07/27 03:39:17;;;;;;;1.20;0.93;;;;;;;;;;5055910;28;20667;-77
2022/07/27 03:41:46;;;;;;;1.60;1.00;;;;;;;;;;5055988;28;20198;-78
2022/07/27 03:44:13;;;;;;;1.13;1.05;;;;;;;;;;5055676;28;20257;-78
2022/07/27 03:46:41;;;;;;;3.58;2.13;;;;;;;;;;5054918;28;20208;-78
2022/07/27 03:49:08;;;;;;;2.90;1.10;;;;;;;;;;5055165;28;20312;-78
2022/07/27 03:51:36;;;;;;;1.52;1.10;;;;;;;;;;5055668;28;20318;-78
2022/07/27 03:54:03;;;;;;;1.75;1.25;;;;;;;;;;5056133;28;20293;-78
2022/07/27 03:56:32;;;;;;;1.00;1.00;;;;;;;;;;5055821;28;20265;-77
2022/07/27 03:59:01;;;;;;;1.13;1.02;;;;;;;;;;5055081;28;20229;-77
2022/07/27 04:01:28;;;;;;;1.30;1.20;;;;;;;;;;5055169;28;20725;-76
2022/07/27 04:03:56;;;;;;;0.75;0.75;;;;;;;;;;5056256;28;20217;-78
2022/07/27 04:06:24;;;;;;;1.20;1.10;;;;;;;;;;5055692;28;20269;-78
2022/07/27 04:08:51;;;;;;;0.80;0.80;;;;;;;;;;5055758;28;20222;-78
2022/07/27 04:11:19;;;;;;;0.80;0.80;;;;;;;;;;5055687;28;20288;-78
2022/07/27 04:13:49;;;;;;;0.90;0.80;;;;;;;;;;5055421;28;20280;-77
2022/07/27 04:16:18;;;;;;;1.85;1.00;;;;;;;;;;5055270;28;20208;-77
2022/07/27 04:18:45;;;;;;;1.02;0.90;;;;;;;;;;5055420;28;20240;-78
2022/07/27 04:21:14;;;;;;;0.80;0.80;;;;;;;;;;5054881;28;20206;-78
2022/07/27 04:23:50;;;;;;;1.17;0.90;;;;;;;;;;5072027;23;20227;-88
2022/07/27 04:26:17;;;;;;;1.25;1.02;;;;;;;;;;5072819;28;20205;-87
2022/07/27 04:28:45;;;;;;;3.00;1.17;;;;;;;;;;5073642;28;20260;-88
2022/07/27 04:31:12;;;;;;;1.02;0.95;;;;;;;;;;5073507;28;20250;-87
2022/07/27 04:33:41;;;;;;;1.25;1.10;;;;;;;;;;5073400;28;20283;-86
2022/07/27 04:36:09;;;;;;;4.43;1.33;;;;;;;;;;5073597;28;20203;-87
2022/07/27 04:38:37;;;;;;;1.58;1.00;;;;;;;;;;5072892;28;20221;-87
2022/07/27 04:41:04;;;;;;;0.93;0.93;;;;;;;;;;5073544;28;20289;-88
2022/07/27 04:43:32;;;;;;;4.00;1.00;;;;;;;;;;5073966;28;20696;-88
2022/07/27 04:46:03;;;;;;;1.73;0.93;;;;;;;;;;5073327;28;20229;-87
2022/07/27 04:48:31;;;;;;;1.00;0.90;;;;;;;;;;5073623;28;20227;-87
2022/07/27 04:51:00;;;;;;;1.48;1.10;;;;;;;;;;5074343;28;20197;-87
2022/07/27 04:53:28;;;;;;;0.70;0.63;;;;;;;;;;5073548;28;20251;-86
2022/07/27 04:55:56;;;;;;;0.98;0.80;;;;;;;;;;5073445;28;20233;-87
2022/07/27 04:58:23;;;;;;;3.30;0.90;;;;;;;;;;5072480;28;20252;-87
2022/07/27 05:00:51;;;;;;;1.63;0.80;;;;;;;;;;5072874;28;20284;-87
2022/07/27 05:03:19;;;;;;;1.55;0.90;;;;;;;;;;5072818;28;20228;-88
2022/07/27 05:05:47;;;;;;;1.27;1.17;;;;;;;;;;5072849;28;20646;-87
2022/07/27 05:08:16;;;;;;;0.70;0.70;;;;;;;;;;5072656;28;20239;-87
2022/07/27 05:10:43;;;;;;;1.25;0.80;;;;;;;;;;5072942;28;20571;-86
2022/07/27 05:13:11;;;;;;;0.98;0.70;;;;;;;;;;5072597;28;20635;-86
2022/07/27 05:15:38;;;;;;;1.00;0.90;;;;;;;;;;5073163;28;20300;-85
2022/07/27 05:18:06;;;;;;;1.15;1.15;;;;;;;;;;5072869;28;20224;-87
2022/07/27 05:20:33;;;;;;;0.70;0.70;;;;;;;;;;5072623;28;20196;-87
2022/07/27 05:23:01;;;;;;;0.80;0.80;;;;;;;;;;5072184;28;20749;-86
2022/07/27 05:25:30;;;;;;;1.70;0.90;;;;;;;;;;5072378;28;20292;-85
2022/07/27 05:27:57;;;;;;;2.00;0.95;;;;;;;;;;5073680;28;20229;-86
2022/07/27 05:30:25;;;;;;;0.80;0.80;;;;;;;;;;5072865;28;20201;-88
2022/07/27 05:32:53;;;;;;;2.00;1.00;;;;;;;;;;5073292;28;20777;-88
2022/07/27 05:35:21;;;;;;;1.67;1.58;;;;;;;;;;5075383;28;20230;-86
2022/07/27 05:37:48;;;;;;;1.42;1.00;;;;;;;;;;5077141;28;20260;-86
2022/07/27 05:40:16;;;;;;;1.27;0.75;;;;;;;;;;5077248;28;20230;-87
2022/07/27 05:42:45;;;;;;;1.30;1.20;;;;;;;;;;5076994;28;20636;-87
2022/07/27 05:45:13;;;;;;;1.00;1.00;;;;;;;;;;5076875;28;20698;-87
2022/07/27 05:47:40;;;;;;;2.88;1.13;;;;;;;;;;5076449;28;20308;-86
2022/07/27 05:50:09;;;;;;;1.33;1.00;;;;;;;;;;5076569;28;20291;-87
2022/07/27 05:52:37;;;;;;;1.92;1.33;;;;;;;;;;5071388;28;20217;-86
2022/07/27 05:55:06;;;;;;;1.70;1.20;;;;;;;;;;5056701;28;20284;-86
2022/07/27 05:57:33;;;;;;;0.95;0.88;;;;;;;;;;5056312;28;20717;-85
2022/07/27 06:00:04;;;;;;;1.25;1.15;;;;;;;;;;5056420;28;20198;-87
2022/07/27 06:02:31;;;;;;;1.67;1.38;;;;;;;;;;5056847;28;20190;-87
2022/07/27 06:04:59;;;;;;;1.20;1.00;;;;;;;;;;5056616;28;20701;-86
2022/07/27 06:10:11;;;;;;;1.08;0.88;;;;;;;;;;5066993;28;20654;-86
2022/07/27 06:12:40;;;;;;;0.77;0.77;;;;;;;;;;5075881;28;20292;-86
2022/07/27 06:15:11;;;;;;;1.10;1.00;;;;;;;;;;5075587;28;20292;-86
2022/07/27 06:17:40;;;;;;;1.02;1.02;;;;;;;;;;5076544;28;20308;-86
2022/07/27 06:20:09;;;;;;;0.95;0.90;;;;;;;;;;5077634;28;20240;-86
2022/07/27 06:22:46;;;;;;;1.45;1.00;;;;;;;;;;5076458;28;20232;-86
2022/07/27 06:25:14;;;;;;;1.23;0.80;;;;;;;;;;5076792;28;20211;-87
2022/07/27 06:27:42;;;;;;;3.13;1.20;;;;;;;;;;5076791;28;20248;-86
2022/07/27 06:30:12;;;;;;;5.53;1.33;;;;;;;;;;5076529;28;20236;-86
2022/07/27 06:32:39;;;;;;;0.80;0.80;;;;;;;;;;5077401;28;20657;-87
2022/07/27 06:35:08;;;;;;;1.02;0.90;;;;;;;;;;5076149;28;20240;-86
2022/07/27 06:37:36;;;;;;;1.63;1.00;;;;;;;;;;5076811;28;20689;-88
2022/07/27 06:40:05;;;;;;;0.65;0.65;;;;;;;;;;5076365;28;20233;-86
2022/07/27 06:42:33;;;;;;;2.00;1.15;;;;;;;;;;5075893;28;20228;-87
2022/07/27 06:45:00;;;;;;;0.98;0.98;;;;;;;;;;5075857;28;20307;-87
2022/07/27 06:47:29;;;;;;;1.10;1.00;;;;;;;;;;5077007;28;20631;-87
2022/07/27 06:49:57;;;;;;;0.80;0.80;;;;;;;;;;5076245;28;20293;-87
2022/07/27 06:52:24;;;;;;;1.35;0.90;;;;;;;;;;5075737;28;20197;-87
2022/07/27 06:54:52;;;;;;;0.70;0.70;;;;;;;;;;5075636;28;20225;-86
2022/07/27 06:57:19;;;;;;;2.53;1.20;;;;;;;;;;5075948;28;20292;-86
2022/07/27 06:59:49;;;;;;;0.88;0.80;;;;;;;;;;5076412;28;20630;-86
2022/07/27 07:02:17;;;;;;;0.80;0.80;;;;;;;;;;5077873;28;20562;-87
2022/07/27 07:04:46;;;;;;;0.95;0.93;;;;;;;;;;5077466;28;20311;-87
2022/07/27 07:07:13;;;;;;;1.15;1.08;;;;;;;;;;5076271;28;20232;-87
2022/07/27 07:09:41;;;;;;;2.40;1.00;;;;;;;;;;5075926;28;20236;-87
2022/07/27 07:12:08;;;;;;;0.65;0.65;;;;;;;;;;5075345;28;20240;-86
2022/07/27 07:14:36;;;;;;;0.70;0.70;;;;;;;;;;5076664;28;20197;-86
2022/07/27 07:17:04;;;;;;;2.08;1.30;;;;;;;;;;5075220;28;20223;-85
2022/07/27 07:19:31;;;;;;;1.02;0.90;;;;;;;;;;5075911;28;20253;-86
2022/07/27 07:22:00;;;;;;;3.00;0.93;;;;;;;;;;5076731;28;20285;-86
2022/07/27 07:24:28;;;;;;;0.77;0.63;;;;;;;;;;5076232;28;20676;-87
2022/07/27 07:26:56;;;;;;;0.80;0.80;;;;;;;;;;5075936;28;20205;-85
2022/07/27 07:29:24;;;;;;;1.30;1.00;;;;;;;;;;5075602;28;20221;-87
2022/07/27 07:31:51;;;;;;;2.10;0.85;;;;;;;;;;5074898;28;20542;-87
2022/07/27 07:34:19;;;;;;;1.27;0.88;;;;;;;;;;5075991;28;20211;-86
2022/07/27 07:36:47;;;;;;;0.90;0.90;;;;;;;;;;5075108;28;20224;-87
2022/07/27 07:39:17;;;;;;;3.50;0.95;;;;;;;;;;5075392;28;20769;-86
2022/07/27 07:41:44;;;;;;;1.35;0.90;;;;;;;;;;5075801;28;20193;-86
2022/07/27 07:44:12;;;;;;;0.90;0.82;;;;;;;;;;5075071;28;20190;-87
2022/07/27 07:46:39;;;;;;;0.70;0.65;;;;;;;;;;5074915;28;20309;-85
2022/07/27 07:49:07;;;;;;;0.90;0.85;;;;;;;;;;5075128;28;20252;-87
2022/07/27 07:51:34;;;;;;;1.20;0.82;;;;;;;;;;5075210;28;20197;-88
2022/07/27 07:54:02;;;;;;;1.48;0.80;;;;;;;;;;5075444;28;20241;-86
2022/07/27 07:56:31;;;;;;;0.85;0.55;;;;;;;;;;5074144;28;20242;-88
2022/07/27 07:59:00;;;;;;;1.40;0.90;;;;;;;;;;5075072;28;20729;-85
2022/07/27 08:01:27;;;;;;;0.70;0.70;;;;;;;;;;5074215;28;20204;-88
2022/07/27 08:03:55;;;;;;;0.60;0.60;;;;;;;;;;5073735;28;20236;-89
2022/07/27 08:06:22;;;;;;;1.00;0.90;;;;;;;;;;5073749;28;20256;-88
2022/07/27 08:08:50;;;;;;;0.70;0.70;;;;;;;;;;5076010;28;20622;-88
2022/07/27 08:11:18;;;;;;;1.88;0.70;;;;;;;;;;5075515;28;20235;-88
2022/07/27 08:13:47;;;;;;;0.80;0.80;;;;;;;;;;5075337;28;20228;-87
2022/07/27 08:16:15;;;;;;;0.85;0.85;;;;;;;;;;5074988;28;20236;-86
2022/07/27 08:18:42;;;;;;;3.28;0.85;;;;;;;;;;5075640;28;20308;-88
2022/07/27 08:21:10;;;;;;;1.25;0.90;;;;;;;;;;5061901;28;20625;-88
2022/07/27 08:23:37;;;;;;;0.80;0.80;;;;;;;;;;5055885;28;20285;-87
2022/07/27 08:26:05;;;;;;;0.60;0.60;;;;;;;;;;5055387;28;20317;-87
2022/07/27 08:28:33;;;;;;;0.73;0.73;;;;;;;;;;5077748;23;20236;-81
2022/07/27 08:31:01;;;;;;;0.95;0.88;;;;;;;;;;5076824;28;20283;-82
2022/07/27 08:33:29;;;;;;;2.05;0.80;;;;;;;;;;5077625;28;20761;-81
2022/07/27 08:35:58;;;;;;;1.73;0.70;;;;;;;;;;5077684;28;20232;-82
2022/07/27 08:38:26;;;;;;;1.95;0.93;;;;;;;;;;5077040;28;20254;-82
2022/07/27 08:40:55;;;;;;;0.75;0.75;;;;;;;;;;5077439;28;20340;-81
2022/07/27 08:43:24;;;;;;;1.50;0.77;;;;;;;;;;5077406;28;20645;-82
2022/07/27 08:45:55;;;;;;;1.40;0.80;;;;;;;;;;5076803;28;20225;-82
2022/07/27 08:48:25;;;;;;;0.73;0.70;;;;;;;;;;5076166;28;20309;-82
2022/07/27 08:50:53;;;;;;;0.70;0.70;;;;;;;;;;5069872;28;20641;-81
2022/07/27 08:53:20;;;;;;;0.75;0.70;;;;;;;;;;5057710;28;20225;-82
2022/07/27 08:55:49;;;;;;;1.63;0.73;;;;;;;;;;5057527;28;20208;-82
2022/07/27 08:58:17;;;;;;;1.52;0.60;;;;;;;;;;5057859;28;20217;-82
2022/07/27 09:00:48;;;;;;;1.38;0.90;;;;;;;;;;5057727;28;20202;-82
2022/07/27 09:03:17;;;;;;;0.93;0.77;;;;;;;;;;5059081;28;20571;-82
2022/07/27 09:05:51;;;;;;;1.38;0.90;;;;;;;;;;5058281;28;20228;-81
2022/07/27 09:08:22;;;;;;;0.98;0.68;;;;;;;;;;5057899;28;20914;-81
2022/07/27 09:10:51;;;;;;;0.90;0.80;;;;;;;;;;5059349;28;20204;-81
2022/07/27 09:13:23;;;;;;;1.20;0.77;;;;;;;;;;5058297;28;20241;-82
2022/07/27 09:15:53;;;;;;;0.80;0.75;;;;;;;;;;5058149;28;20233;-82
2022/07/27 09:18:22;;;;;;;1.23;0.85;;;;;;;;;;5057868;28;20308;-81
2022/07/27 09:21:15;;;;;;;1.10;0.70;;;;;;;;;;5059832;28;20205;-81
2022/07/27 09:23:44;;;;;;;2.13;1.08;;;;;;;;;;5058406;28;20190;-81
2022/07/27 09:26:15;;;;;;;0.70;0.70;;;;;;;;;;5059598;28;20333;-81
2022/07/27 09:28:44;;;;;;;0.90;0.80;;;;;;;;;;5059792;28;20292;-82
2022/07/27 09:31:14;;;;;;;0.65;0.65;;;;;;;;;;5059012;28;20245;-81
2022/07/27 09:33:44;;;;;;;0.80;0.80;;;;;;;;;;5058286;28;20272;-81
2022/07/27 09:36:13;;;;;;;0.75;0.75;;;;;;;;;;5057188;28;20198;-81
2022/07/27 09:38:52;;;;;;;3.28;1.50;;;;;;;;;;5064777;28;20225;-81
2022/07/27 09:41:21;;;;;;;0.90;0.80;;;;;;;;;;5077605;28;20185;-81
2022/07/27 09:43:50;;;;;;;1.33;1.17;;;;;;;;;;5080342;28;20193;-81
2022/07/27 09:46:30;;;;;;;1.73;0.98;;;;;;;;;;5077422;28;20256;-81
2022/07/27 09:48:58;;;;;;;1.67;0.90;;;;;;;;;;5077578;28;20705;-81
2022/07/27 09:51:27;;;;;;;1.08;0.90;;;;;;;;;;5077659;28;20697;-81
2022/07/27 09:53:57;;;;;;;0.68;0.68;;;;;;;;;;5076530;28;20700;-82
2022/07/27 09:56:29;;;;;;;1.63;0.70;;;;;;;;;;5077118;28;20250;-81
2022/07/27 09:58:58;;;;;;;0.70;0.70;;;;;;;;;;5077473;28;20313;-82
2022/07/27 10:01:29;;;;;;;0.68;0.63;;;;;;;;;;5077274;28;20227;-81
2022/07/27 10:04:00;;;;;;;1.08;0.82;;;;;;;;;;5077835;28;20219;-81
2022/07/27 10:06:30;;;;;;;0.90;0.70;;;;;;;;;;5076029;28;20285;-82
2022/07/27 10:08:59;;;;;;;0.80;0.80;;;;;;;;;;5076500;28;20224;-82
2022/07/27 10:11:28;;;;;;;1.27;1.17;;;;;;;;;;5076718;28;20287;-81
2022/07/27 10:13:59;;;;;;;1.48;0.80;;;;;;;;;;5075123;28;20709;-82
2022/07/27 10:16:29;;;;;;;2.10;1.92;;;;;;;;;;5075114;28;20259;-81
2022/07/27 10:19:03;;;;;;;0.60;0.60;;;;;;;;;;5075672;28;20248;-82
2022/07/27 10:21:33;;;;;;;1.17;0.80;;;;;;;;;;5061356;28;20299;-82
2022/07/27 10:24:03;;;;;;;3.22;0.80;;;;;;;;;;5058849;28;20208;-82
2022/07/27 10:26:34;;;;;;;2.50;1.05;;;;;;;;;;5059192;28;20296;-82
2022/07/27 10:29:03;;;;;;;1.58;1.45;;;;;;;;;;5059460;28;20236;-82
2022/07/27 10:31:35;;;;;;;1.20;1.02;;;;;;;;;;5058966;28;20233;-82
2022/07/27 10:34:05;;;;;;;0.80;0.80;;;;;;;;;;5058391;28;20229;-82
2022/07/27 10:36:49;;;;;;;1.42;1.00;;;;;;;;;;5058403;28;20631;-81
2022/07/27 10:39:45;;;;;;;1.35;0.93;;;;;;;;;;5071096;28;20774;-81
2022/07/27 10:42:23;;;;;;;0.60;0.60;;;;;;;;;;5065974;28;20609;-82
2022/07/27 10:45:00;;;;;;;0.80;0.80;;;;;;;;;;5079227;28;20255;-81
2022/07/27 10:47:32;;;;;;;0.82;0.63;;;;;;;;;;5079643;28;20239;-82
2022/07/27 10:50:28;;;;;;;1.23;0.75;;;;;;;;;;5078614;28;20552;-82
2022/07/27 10:53:01;;;;;;;0.82;0.55;;;;;;;;;;5080198;28;20185;-81
2022/07/27 10:55:50;;;;;;;1.13;0.75;;;;;;;;;;5081116;28;20236;-81
2022/07/27 10:58:47;;;;;;;0.50;0.50;;;;;;;;;;5079270;28;20220;-82
2022/07/27 11:01:17;;;;;;;1.75;0.80;;;;;;;;;;5079210;28;20681;-82
2022/07/27 11:03:55;;;;;;;0.70;0.70;;;;;;;;;;5069476;28;20232;-81
2022/07/27 11:06:31;;;;;;;1.00;0.65;;;;;;;;;;5059647;28;20553;-81
2022/07/27 11:09:02;;;;;;;1.10;1.05;;;;;;;;;;5068963;28;20224;-81
2022/07/27 11:11:33;;;;;;;0.90;0.80;;;;;;;;;;5079062;28;20258;-81
2022/07/27 11:14:01;;;;;;;2.40;1.10;;;;;;;;;;5078975;28;20217;-81
2022/07/27 11:16:30;;;;;;;1.10;1.00;;;;;;;;;;5078984;28;20241;-82
2022/07/27 11:19:02;;;;;;;0.73;0.60;;;;;;;;;;5078389;28;20217;-82
2022/07/27 11:21:33;;;;;;;0.98;0.80;;;;;;;;;;5079136;28;20189;-81
2022/07/27 11:24:05;;;;;;;0.95;0.95;;;;;;;;;;5079019;28;20189;-81
2022/07/27 11:26:39;;;;;;;1.38;0.80;;;;;;;;;;5079271;28;20217;-81
2022/07/27 11:29:12;;;;;;;1.83;0.75;;;;;;;;;;5040766;28;1113138;-81
2022/07/27 11:31:41;;;;;;;0.70;0.70;;;;;;;;;;5078819;28;20229;-81
2022/07/27 11:34:10;;;;;;;1.27;0.85;;;;;;;;;;5079933;28;20284;-80
2022/07/27 11:36:41;;;;;;;0.55;0.52;;;;;;;;;;5078642;28;20268;-81
2022/07/27 11:39:12;;;;;;;0.40;0.40;;;;;;;;;;5078812;28;20751;-81
2022/07/27 11:41:41;;;;;;;0.60;0.60;;;;;;;;;;5079085;28;20244;-81
2022/07/27 11:44:10;;;;;;;0.70;0.70;;;;;;;;;;5079287;28;20197;-81
2022/07/27 11:46:42;;;;;;;1.48;0.70;;;;;;;;;;5078369;28;20208;-81
2022/07/27 11:49:12;;;;;;;1.08;0.90;;;;;;;;;;5077835;28;20221;-82
2022/07/27 11:51:42;;;;;;;0.70;0.60;;;;;;;;;;5078257;28;20203;-82
2022/07/27 11:54:13;;;;;;;0.55;0.55;;;;;;;;;;5078476;28;20217;-81
2022/07/27 11:56:45;;;;;;;0.60;0.60;;;;;;;;;;5077603;28;20197;-82
2022/07/27 11:59:16;;;;;;;1.75;0.70;;;;;;;;;;5078521;28;20239;-81
2022/07/27 12:01:47;;;;;;;0.70;0.70;;;;;;;;;;5078001;28;20213;-81
2022/07/27 12:04:20;;;;;;;0.90;0.90;;;;;;;;;;5077819;28;20220;-83
2022/07/27 12:07:04;;;;;;;0.65;0.65;;;;;;;;;;5078040;28;20665;-81
2022/07/27 12:09:35;;;;;;;0.45;0.45;;;;;;;;;;5077473;28;20307;-82
2022/07/27 12:12:13;;;;;;;0.88;0.82;;;;;;;;;;5077861;28;20275;-81
2022/07/27 12:14:44;;;;;;;2.03;0.70;;;;;;;;;;5077328;28;20189;-81
2022/07/27 12:17:21;;;;;;;0.88;0.77;;;;;;;;;;5077261;28;20211;-82
2022/07/27 12:19:55;;;;;;;1.52;0.60;;;;;;;;;;5077940;28;20223;-82
2022/07/27 12:22:29;;;;;;;0.75;0.75;;;;;;;;;;5078291;28;20187;-81
2022/07/27 12:24:59;;;;;;;0.60;0.60;;;;;;;;;;5077377;28;20277;-82
2022/07/27 12:27:27;;;;;;;1.52;0.88;;;;;;;;;;5076596;28;20273;-81
2022/07/27 12:30:05;;;;;;;0.70;0.70;;;;;;;;;;5077977;28;20762;-82
2022/07/27 12:32:38;;;;;;;2.05;0.88;;;;;;;;;;5077813;28;20665;-82
2022/07/27 12:35:23;;;;;;;1.00;0.50;;;;;;;;;;5077838;28;20572;-82
2022/07/27 12:37:59;;;;;;;1.17;1.00;;;;;;;;;;5076377;28;20284;-82
2022/07/27 12:40:29;;;;;;;0.75;0.75;;;;;;;;;;5057186;28;20213;-82
2022/07/27 12:42:59;;;;;;;0.80;0.80;;;;;;;;;;5057439;28;20214;-81
2022/07/27 12:45:33;;;;;;;0.60;0.60;;;;;;;;;;5057355;28;20614;-81
2022/07/27 12:48:10;;;;;;;1.85;1.15;;;;;;;;;;5056084;28;20228;-82
2022/07/27 12:50:38;;;;;;;2.03;0.80;;;;;;;;;;5065391;28;20231;-82
2022/07/27 12:53:06;;;;;;;0.80;0.80;;;;;;;;;;5076761;28;20247;-81
2022/07/27 12:55:35;;;;;;;0.70;0.70;;;;;;;;;;5077169;28;20289;-82
2022/07/27 12:58:03;;;;;;;0.80;0.60;;;;;;;;;;5076963;28;20308;-82
2022/07/27 13:00:31;;;;;;;0.80;0.80;;;;;;;;;;5077687;28;20204;-82
2022/07/27 13:03:00;;;;;;;0.75;0.75;;;;;;;;;;5078346;28;20640;-82
2022/07/27 13:05:27;;;;;;;0.90;0.77;;;;;;;;;;5078244;28;20291;-81
2022/07/27 13:07:55;;;;;;;0.95;0.70;;;;;;;;;;5077718;28;20308;-82
2022/07/27 13:10:23;;;;;;;0.77;0.60;;;;;;;;;;5078685;28;20228;-81
2022/07/27 13:12:52;;;;;;;0.73;0.73;;;;;;;;;;5078782;28;20240;-82
2022/07/27 13:15:20;;;;;;;1.00;0.98;;;;;;;;;;5078388;28;20193;-81
2022/07/27 13:17:48;;;;;;;2.30;1.45;;;;;;;;;;5077679;28;20630;-82
2022/07/27 13:20:17;;;;;;;0.98;0.70;;;;;;;;;;5077531;28;20653;-81
2022/07/27 13:22:45;;;;;;;0.77;0.77;;;;;;;;;;5078323;28;20232;-82
2022/07/27 13:25:14;;;;;;;1.15;0.80;;;;;;;;;;5077941;28;20643;-82
2022/07/27 13:27:42;;;;;;;1.10;1.00;;;;;;;;;;5076811;28;20220;-81
2022/07/27 13:30:14;;;;;;;1.15;1.00;;;;;;;;;;5077220;28;20238;-82
2022/07/27 13:32:42;;;;;;;1.08;0.70;;;;;;;;;;5076746;28;20192;-81
2022/07/27 13:35:11;;;;;;;1.48;0.90;;;;;;;;;;5077638;28;20223;-81
2022/07/27 13:37:39;;;;;;;1.40;1.13;;;;;;;;;;5076517;28;20197;-81
2022/07/27 13:40:08;;;;;;;1.60;0.77;;;;;;;;;;5077302;28;20291;-81
2022/07/27 13:42:36;;;;;;;0.70;0.70;;;;;;;;;;5076816;28;20238;-81
2022/07/27 13:45:04;;;;;;;0.80;0.80;;;;;;;;;;5076569;28;20227;-82
2022/07/27 13:47:33;;;;;;;2.05;0.80;;;;;;;;;;5074949;28;20197;-83
2022/07/27 13:50:02;;;;;;;1.30;0.90;;;;;;;;;;5072430;28;20733;-81
2022/07/27 13:52:29;;;;;;;2.03;0.90;;;;;;;;;;5058415;28;20289;-82
2022/07/27 13:54:57;;;;;;;0.90;0.63;;;;;;;;;;5055893;28;20417;-81
2022/07/27 13:57:24;;;;;;;0.95;0.93;;;;;;;;;;5058455;28;20284;-82
2022/07/27 13:59:52;;;;;;;1.55;0.80;;;;;;;;;;5059352;28;20248;-82
2022/07/27 14:02:19;;;;;;;1.33;1.00;;;;;;;;;;5060381;28;20309;-81
2022/07/27 14:04:48;;;;;;;1.85;0.82;;;;;;;;;;5060463;28;20232;-82
2022/07/27 14:07:16;;;;;;;0.70;0.70;;;;;;;;;;5060472;28;20237;-82
2022/07/27 14:12:28;;;;;;;1.08;0.80;;;;;;;;;;5080387;28;20332;-82
2022/07/27 14:14:56;;;;;;;1.42;1.00;;;;;;;;;;5081253;28;20224;-82
2022/07/27 14:17:23;;;;;;;1.15;1.05;;;;;;;;;;5079796;28;20239;-81
2022/07/27 14:19:52;;;;;;;0.88;0.80;;;;;;;;;;5078787;28;20277;-82
2022/07/27 14:22:20;;;;;;;0.90;0.90;;;;;;;;;;5064556;28;20859;-82
2022/07/27 14:24:47;;;;;;;0.85;0.85;;;;;;;;;;5081202;28;20251;-82
2022/07/27 14:27:15;;;;;;;1.50;1.40;;;;;;;;;;5081993;28;20644;-81
2022/07/27 14:29:42;;;;;;;0.65;0.65;;;;;;;;;;5088938;22;20693;-78
2022/07/27 14:32:10;;;;;;;0.80;0.80;;;;;;;;;;5055445;28;20244;-77
2022/07/27 14:34:37;;;;;;;0.80;0.80;;;;;;;;;;5055099;28;20304;-78
2022/07/27 14:37:06;;;;;;;0.80;0.73;;;;;;;;;;5055449;28;20237;-78
2022/07/27 14:39:34;;;;;;;0.90;0.70;;;;;;;;;;5055702;28;20201;-78
2022/07/27 14:42:01;;;;;;;1.08;1.02;;;;;;;;;;5054842;28;20757;-78
2022/07/27 14:44:29;;;;;;;0.70;0.70;;;;;;;;;;5054629;28;20300;-79
2022/07/27 14:46:57;;;;;;;0.63;0.63;;;;;;;;;;5055165;28;20646;-78
2022/07/27 14:49:24;;;;;;;1.42;0.90;;;;;;;;;;5054974;28;20308;-78
2022/07/27 14:51:52;;;;;;;1.13;0.90;;;;;;;;;;5051421;28;20742;-78
2022/07/27 14:54:21;;;;;;;1.75;1.10;;;;;;;;;;5055074;28;20232;-78
2022/07/27 14:56:49;;;;;;;0.77;0.77;;;;;;;;;;5055244;28;20292;-79
2022/07/27 14:59:16;;;;;;;0.75;0.75;;;;;;;;;;5055767;28;20615;-79
2022/07/27 15:01:44;;;;;;;0.90;0.80;;;;;;;;;;5055392;28;20202;-78